createdAt,value
2018-08-13T00:00:22.213Z,26.30
2018-08-13T00:01:39.010Z,26.30
2018-08-13T00:02:55.676Z,26.30
2018-08-13T00:04:12.620Z,26.30
2018-08-13T00:05:29.577Z,26.30
2018-08-13T00:06:46.452Z,28.00
2018-08-13T00:08:03.410Z,26.30
2018-08-13T00:09:24.440Z,26.30
2018-08-13T00:10:41.049Z,26.30
2018-08-13T00:11:58.568Z,26.30
2018-08-13T00:13:16.244Z,26.20
2018-08-13T00:14:34.117Z,26.20
2018-08-13T00:15:51.380Z,26.30
2018-08-13T00:17:08.396Z,26.30
2018-08-13T00:18:26.000Z,26.30
2018-08-13T00:19:42.808Z,26.20
2018-08-13T00:20:59.412Z,26.30
2018-08-13T00:22:16.067Z,26.30
2018-08-13T00:23:32.920Z,26.20
2018-08-13T00:24:50.004Z,26.20
2018-08-13T00:26:06.904Z,26.20
2018-08-13T00:27:23.442Z,26.20
2018-08-13T00:28:40.310Z,26.20
2018-08-13T00:29:57.121Z,26.20
2018-08-13T00:31:14.084Z,26.20
2018-08-13T00:32:31.518Z,26.20
2018-08-13T00:33:49.156Z,26.20
2018-08-13T00:35:06.343Z,26.20
2018-08-13T00:36:23.235Z,26.20
2018-08-13T00:37:39.868Z,26.20
2018-08-13T00:38:56.776Z,26.20
2018-08-13T00:40:14.073Z,26.20
2018-08-13T00:41:31.547Z,26.20
2018-08-13T00:42:48.343Z,26.20
2018-08-13T00:44:05.708Z,26.20
2018-08-13T00:45:23.262Z,26.20
2018-08-13T00:46:39.907Z,26.20
2018-08-13T00:47:57.062Z,26.20
2018-08-13T00:49:13.724Z,26.20
2018-08-13T00:50:30.833Z,26.30
2018-08-13T00:51:47.439Z,26.20
2018-08-13T00:53:04.440Z,26.20
2018-08-13T00:54:20.920Z,26.20
2018-08-13T00:55:37.649Z,26.20
2018-08-13T00:56:54.799Z,26.20
2018-08-13T00:58:11.419Z,26.20
2018-08-13T00:59:28.401Z,26.20
2018-08-13T01:00:45.340Z,26.20
2018-08-13T01:02:02.107Z,26.20
2018-08-13T01:03:19.241Z,26.20
2018-08-13T01:04:36.561Z,26.20
2018-08-13T01:05:53.212Z,26.20
2018-08-13T01:07:10.041Z,26.20
2018-08-13T01:08:26.965Z,26.20
2018-08-13T01:09:43.748Z,26.20
2018-08-13T01:11:00.589Z,26.20
2018-08-13T01:12:17.296Z,26.20
2018-08-13T01:13:34.167Z,26.20
2018-08-13T01:14:51.150Z,26.20
2018-08-13T01:16:07.957Z,26.20
2018-08-13T01:17:24.860Z,26.20
2018-08-13T01:18:41.920Z,26.10
2018-08-13T01:19:58.640Z,26.10
2018-08-13T01:21:15.257Z,26.10
2018-08-13T01:22:32.126Z,26.10
2018-08-13T01:23:49.140Z,26.10
2018-08-13T01:25:07.368Z,26.10
2018-08-13T01:26:24.825Z,26.20
2018-08-13T01:27:42.371Z,26.10
2018-08-13T01:28:59.713Z,26.10
2018-08-13T01:30:17.806Z,26.10
2018-08-13T01:31:35.180Z,26.10
2018-08-13T01:32:52.383Z,26.10
2018-08-13T01:34:10.133Z,26.10
2018-08-13T01:35:26.939Z,26.20
2018-08-13T01:36:43.847Z,26.10
2018-08-13T01:38:00.587Z,26.10
2018-08-13T01:39:17.138Z,26.10
2018-08-13T01:40:34.097Z,26.10
2018-08-13T01:41:50.825Z,26.10
2018-08-13T01:43:07.441Z,26.10
2018-08-13T01:44:24.317Z,26.10
2018-08-13T01:45:40.822Z,26.10
2018-08-13T01:46:57.663Z,26.10
2018-08-13T01:48:14.585Z,26.10
2018-08-13T01:49:31.649Z,26.10
2018-08-13T01:50:49.147Z,26.10
2018-08-13T01:52:05.920Z,26.10
2018-08-13T01:53:22.633Z,26.10
2018-08-13T01:54:39.973Z,26.10
2018-08-13T01:55:57.619Z,26.10
2018-08-13T01:57:15.512Z,26.10
2018-08-13T01:58:32.849Z,26.10
2018-08-13T01:59:49.642Z,26.10
2018-08-13T02:01:06.755Z,26.10
2018-08-13T02:02:23.415Z,26.10
2018-08-13T02:03:40.233Z,26.10
2018-08-13T02:04:56.728Z,26.10
2018-08-13T02:06:13.316Z,26.10
2018-08-13T02:07:30.310Z,26.10
2018-08-13T02:08:47.252Z,26.10
2018-08-13T02:10:04.604Z,26.10
2018-08-13T02:11:21.955Z,26.10
2018-08-13T02:12:38.700Z,26.10
2018-08-13T02:13:55.388Z,26.10
2018-08-13T02:15:12.192Z,26.10
2018-08-13T02:16:29.049Z,26.10
2018-08-13T02:17:45.928Z,26.10
2018-08-13T02:19:02.960Z,26.10
2018-08-13T02:20:19.962Z,26.10
2018-08-13T02:21:36.523Z,26.10
2018-08-13T02:22:53.458Z,26.10
2018-08-13T02:24:10.342Z,26.10
2018-08-13T02:25:26.929Z,26.10
2018-08-13T02:26:43.680Z,26.10
2018-08-13T02:28:00.514Z,26.10
2018-08-13T02:29:17.160Z,26.10
2018-08-13T02:30:34.017Z,26.10
2018-08-13T02:31:50.752Z,26.10
2018-08-13T02:33:07.841Z,26.00
2018-08-13T02:34:25.390Z,26.10
2018-08-13T02:35:42.597Z,26.10
2018-08-13T02:36:59.439Z,26.00
2018-08-13T02:38:16.912Z,26.10
2018-08-13T02:39:33.873Z,26.10
2018-08-13T02:40:50.591Z,26.10
2018-08-13T02:42:07.449Z,26.10
2018-08-13T02:43:24.418Z,26.10
2018-08-13T02:44:41.459Z,26.10
2018-08-13T02:45:58.397Z,26.10
2018-08-13T02:47:15.341Z,26.10
2018-08-13T02:48:32.333Z,26.10
2018-08-13T02:49:49.020Z,26.10
2018-08-13T02:51:05.920Z,26.10
2018-08-13T02:52:23.653Z,26.00
2018-08-13T02:53:40.406Z,26.10
2018-08-13T02:54:57.769Z,26.10
2018-08-13T02:56:14.645Z,26.10
2018-08-13T02:57:31.428Z,26.10
2018-08-13T02:58:48.300Z,26.10
2018-08-13T03:00:07.220Z,26.10
2018-08-13T03:01:23.977Z,26.10
2018-08-13T03:02:41.129Z,26.00
2018-08-13T03:03:57.722Z,26.00
2018-08-13T03:05:14.630Z,26.00
2018-08-13T03:06:31.957Z,26.00
2018-08-13T03:07:49.557Z,26.00
2018-08-13T03:09:09.026Z,26.00
2018-08-13T03:10:25.909Z,26.00
2018-08-13T03:11:42.797Z,26.00
2018-08-13T03:12:59.680Z,26.00
2018-08-13T03:14:16.661Z,26.00
2018-08-13T03:15:33.556Z,26.00
2018-08-13T03:16:50.442Z,26.00
2018-08-13T03:18:07.497Z,26.00
2018-08-13T03:19:25.165Z,26.00
2018-08-13T03:20:41.799Z,26.00
2018-08-13T03:21:58.338Z,26.00
2018-08-13T03:23:15.169Z,26.00
2018-08-13T03:24:31.886Z,26.00
2018-08-13T03:25:48.729Z,26.00
2018-08-13T03:27:05.444Z,26.00
2018-08-13T03:28:22.548Z,26.00
2018-08-13T03:29:39.340Z,26.00
2018-08-13T03:30:56.478Z,26.00
2018-08-13T03:32:13.990Z,26.00
2018-08-13T03:33:30.650Z,26.00
2018-08-13T03:34:47.441Z,26.00
2018-08-13T03:36:04.780Z,26.00
2018-08-13T03:37:22.233Z,26.00
2018-08-13T03:38:38.812Z,26.00
2018-08-13T03:39:55.820Z,26.00
2018-08-13T03:41:12.928Z,26.00
2018-08-13T03:42:29.430Z,26.00
2018-08-13T03:43:46.283Z,26.00
2018-08-13T03:45:03.188Z,26.00
2018-08-13T03:46:19.776Z,26.00
2018-08-13T03:47:36.704Z,26.00
2018-08-13T03:48:53.581Z,26.00
2018-08-13T03:50:11.866Z,26.00
2018-08-13T03:51:29.053Z,26.00
2018-08-13T03:52:45.866Z,26.00
2018-08-13T03:54:02.877Z,26.00
2018-08-13T03:55:19.617Z,26.00
2018-08-13T03:56:36.334Z,25.90
2018-08-13T03:57:53.861Z,26.00
2018-08-13T03:59:11.320Z,25.90
2018-08-13T04:00:28.201Z,26.00
2018-08-13T04:01:45.200Z,25.90
2018-08-13T04:03:01.900Z,25.90
2018-08-13T04:04:19.060Z,25.90
2018-08-13T04:05:35.561Z,25.90
2018-08-13T04:06:52.417Z,25.90
2018-08-13T04:08:08.908Z,25.90
2018-08-13T04:09:25.997Z,25.90
2018-08-13T04:10:42.633Z,25.90
2018-08-13T04:11:59.638Z,25.90
2018-08-13T04:13:16.517Z,25.90
2018-08-13T04:14:33.517Z,25.90
2018-08-13T04:15:50.261Z,25.90
2018-08-13T04:17:07.128Z,25.90
2018-08-13T04:18:24.049Z,25.90
2018-08-13T04:19:40.775Z,25.90
2018-08-13T04:20:57.730Z,25.90
2018-08-13T04:22:14.385Z,25.90
2018-08-13T04:23:31.488Z,25.90
2018-08-13T04:24:48.324Z,25.90
2018-08-13T04:26:05.287Z,25.90
2018-08-13T04:27:22.144Z,25.90
2018-08-13T04:28:38.890Z,25.90
2018-08-13T04:29:55.413Z,25.90
2018-08-13T04:31:12.332Z,25.90
2018-08-13T04:32:29.375Z,25.80
2018-08-13T04:33:45.960Z,25.90
2018-08-13T04:35:02.856Z,25.90
2018-08-13T04:36:19.785Z,25.90
2018-08-13T04:37:37.157Z,25.90
2018-08-13T04:38:54.198Z,25.90
2018-08-13T04:40:12.922Z,25.90
2018-08-13T04:41:29.599Z,25.90
2018-08-13T04:42:47.535Z,25.90
2018-08-13T04:44:04.849Z,25.90
2018-08-13T04:45:21.858Z,25.90
2018-08-13T04:46:38.725Z,25.90
2018-08-13T04:47:55.891Z,25.80
2018-08-13T04:49:13.472Z,25.90
2018-08-13T04:50:30.116Z,25.80
2018-08-13T04:51:47.518Z,25.80
2018-08-13T04:53:04.479Z,25.80
2018-08-13T04:54:21.093Z,25.80
2018-08-13T04:55:38.201Z,25.90
2018-08-13T04:56:55.488Z,25.80
2018-08-13T04:58:12.476Z,25.80
2018-08-13T04:59:29.232Z,25.80
2018-08-13T05:00:46.080Z,25.80
2018-08-13T05:02:03.035Z,25.90
2018-08-13T05:03:19.705Z,25.80
2018-08-13T05:04:37.300Z,25.90
2018-08-13T05:05:54.400Z,25.80
2018-08-13T05:07:11.003Z,25.80
2018-08-13T05:08:27.996Z,25.80
2018-08-13T05:09:44.844Z,25.80
2018-08-13T05:11:01.866Z,25.80
2018-08-13T05:12:18.856Z,25.80
2018-08-13T05:13:35.732Z,25.80
2018-08-13T05:14:53.144Z,25.80
2018-08-13T05:16:10.061Z,25.80
2018-08-13T05:17:27.001Z,25.80
2018-08-13T05:18:43.940Z,25.90
2018-08-13T05:20:00.536Z,25.80
2018-08-13T05:21:17.267Z,25.80
2018-08-13T05:22:33.880Z,25.80
2018-08-13T05:23:50.472Z,25.80
2018-08-13T05:25:08.739Z,25.80
2018-08-13T05:26:27.044Z,25.80
2018-08-13T05:27:43.502Z,25.80
2018-08-13T05:29:00.188Z,25.80
2018-08-13T05:30:17.066Z,25.80
2018-08-13T05:31:34.447Z,25.80
2018-08-13T05:32:51.308Z,25.80
2018-08-13T05:34:08.024Z,25.80
2018-08-13T05:35:25.485Z,25.80
2018-08-13T05:36:42.100Z,25.80
2018-08-13T05:37:58.603Z,25.80
2018-08-13T05:39:15.398Z,25.80
2018-08-13T05:40:32.677Z,25.80
2018-08-13T05:41:49.516Z,25.80
2018-08-13T05:43:06.617Z,25.80
2018-08-13T05:44:23.868Z,25.80
2018-08-13T05:45:40.740Z,25.80
2018-08-13T05:46:58.110Z,25.80
2018-08-13T05:48:14.821Z,25.80
2018-08-13T05:49:31.795Z,25.80
2018-08-13T05:50:48.598Z,25.80
2018-08-13T05:52:05.245Z,25.80
2018-08-13T05:53:22.100Z,25.80
2018-08-13T05:54:39.146Z,25.80
2018-08-13T05:55:56.733Z,25.80
2018-08-13T05:57:13.537Z,25.80
2018-08-13T05:58:31.028Z,25.80
2018-08-13T05:59:47.831Z,25.70
2018-08-13T06:01:04.781Z,25.80
2018-08-13T06:02:21.656Z,25.70
2018-08-13T06:03:38.441Z,25.70
2018-08-13T06:04:55.320Z,25.70
2018-08-13T06:06:12.021Z,25.70
2018-08-13T06:07:29.613Z,25.70
2018-08-13T06:08:46.528Z,25.70
2018-08-13T06:10:03.134Z,25.70
2018-08-13T06:11:20.072Z,25.70
2018-08-13T06:12:36.983Z,25.70
2018-08-13T06:13:54.552Z,25.70
2018-08-13T06:15:12.733Z,25.70
2018-08-13T06:16:29.840Z,25.70
2018-08-13T06:17:46.692Z,25.70
2018-08-13T06:19:03.584Z,25.70
2018-08-13T06:20:20.648Z,25.70
2018-08-13T06:21:37.221Z,25.70
2018-08-13T06:22:54.188Z,25.70
2018-08-13T06:24:11.080Z,25.70
2018-08-13T06:25:28.444Z,25.70
2018-08-13T06:26:46.080Z,25.70
2018-08-13T06:28:02.752Z,25.70
2018-08-13T06:29:19.432Z,25.70
2018-08-13T06:30:36.336Z,25.70
2018-08-13T06:31:54.101Z,25.70
2018-08-13T06:33:10.682Z,25.70
2018-08-13T06:34:28.136Z,25.70
2018-08-13T06:35:45.425Z,25.70
2018-08-13T06:37:02.228Z,25.70
2018-08-13T06:38:18.692Z,25.70
2018-08-13T06:39:35.364Z,25.70
2018-08-13T06:40:52.740Z,25.70
2018-08-13T06:42:09.885Z,25.70
2018-08-13T06:43:26.551Z,25.70
2018-08-13T06:44:43.688Z,25.70
2018-08-13T06:46:00.245Z,25.70
2018-08-13T06:47:17.186Z,25.70
2018-08-13T06:48:34.439Z,25.70
2018-08-13T06:49:51.913Z,25.70
2018-08-13T06:51:08.896Z,25.70
2018-08-13T06:52:26.541Z,25.70
2018-08-13T06:53:43.464Z,25.70
2018-08-13T06:55:00.318Z,25.70
2018-08-13T06:56:17.329Z,25.60
2018-08-13T06:57:34.513Z,25.70
2018-08-13T06:58:51.907Z,25.70
2018-08-13T07:00:12.797Z,25.70
2018-08-13T07:01:31.610Z,25.70
2018-08-13T07:02:48.590Z,25.70
2018-08-13T07:04:05.276Z,25.70
2018-08-13T07:05:22.184Z,25.60
2018-08-13T07:06:39.469Z,25.60
2018-08-13T07:07:57.819Z,25.70
2018-08-13T07:09:15.014Z,25.60
2018-08-13T07:10:33.695Z,25.60
2018-08-13T07:11:50.975Z,25.70
2018-08-13T07:13:13.311Z,25.60
2018-08-13T07:14:30.342Z,25.60
2018-08-13T07:15:47.292Z,25.60
2018-08-13T07:17:04.072Z,25.60
2018-08-13T07:18:21.251Z,25.60
2018-08-13T07:19:37.920Z,25.60
2018-08-13T07:20:59.136Z,25.60
2018-08-13T07:22:16.467Z,25.60
2018-08-13T07:23:33.069Z,25.60
2018-08-13T07:24:50.132Z,25.60
2018-08-13T07:26:07.011Z,25.60
2018-08-13T07:27:28.053Z,25.60
2018-08-13T07:28:44.861Z,25.60
2018-08-13T07:30:02.266Z,25.60
2018-08-13T07:31:19.519Z,25.60
2018-08-13T07:32:36.715Z,25.60
2018-08-13T07:33:53.871Z,25.60
2018-08-13T07:35:12.345Z,25.60
2018-08-13T07:36:29.624Z,25.60
2018-08-13T07:37:46.337Z,25.60
2018-08-13T07:39:03.640Z,25.60
2018-08-13T07:40:20.972Z,25.60
2018-08-13T07:41:37.990Z,25.60
2018-08-13T07:42:54.695Z,25.60
2018-08-13T07:44:11.514Z,25.60
2018-08-13T07:45:28.443Z,25.60
2018-08-13T07:46:45.356Z,25.60
2018-08-13T07:48:02.253Z,25.60
2018-08-13T07:49:19.790Z,25.60
2018-08-13T07:50:36.569Z,25.60
2018-08-13T07:51:53.593Z,25.60
2018-08-13T07:53:10.437Z,25.60
2018-08-13T07:54:27.360Z,25.60
2018-08-13T07:55:44.405Z,25.60
2018-08-13T07:57:01.113Z,25.60
2018-08-13T07:58:18.065Z,25.60
2018-08-13T07:59:34.837Z,25.60
2018-08-13T08:00:51.529Z,25.60
2018-08-13T08:02:08.452Z,25.60
2018-08-13T08:03:25.048Z,25.60
2018-08-13T08:04:42.103Z,25.60
2018-08-13T08:05:58.809Z,25.60
2018-08-13T08:07:15.900Z,25.50
2018-08-13T08:08:32.780Z,25.50
2018-08-13T08:09:49.653Z,25.50
2018-08-13T08:11:07.193Z,25.50
2018-08-13T08:12:23.817Z,25.50
2018-08-13T08:13:41.155Z,25.50
2018-08-13T08:14:58.674Z,25.50
2018-08-13T08:16:15.565Z,25.50
2018-08-13T08:17:32.792Z,25.50
2018-08-13T08:18:49.523Z,25.60
2018-08-13T08:20:06.420Z,25.50
2018-08-13T08:21:23.151Z,25.60
2018-08-13T08:22:40.600Z,25.50
2018-08-13T08:23:57.714Z,25.50
2018-08-13T08:25:17.765Z,25.50
2018-08-13T08:26:34.449Z,25.50
2018-08-13T08:27:51.249Z,25.50
2018-08-13T08:29:09.276Z,25.50
2018-08-13T08:30:25.883Z,25.50
2018-08-13T08:31:43.046Z,25.50
2018-08-13T08:32:59.847Z,25.50
2018-08-13T08:34:17.070Z,25.50
2018-08-13T08:35:33.684Z,25.50
2018-08-13T08:36:50.574Z,25.50
2018-08-13T08:38:07.656Z,25.50
2018-08-13T08:39:24.966Z,25.50
2018-08-13T08:40:42.021Z,25.50
2018-08-13T08:41:59.832Z,25.50
2018-08-13T08:43:17.508Z,25.50
2018-08-13T08:44:35.134Z,25.50
2018-08-13T08:45:51.825Z,25.50
2018-08-13T08:47:09.685Z,25.50
2018-08-13T08:48:26.762Z,25.50
2018-08-13T08:49:44.426Z,25.50
2018-08-13T08:51:02.371Z,25.50
2018-08-13T08:52:19.636Z,25.50
2018-08-13T08:53:36.470Z,25.50
2018-08-13T08:54:53.185Z,25.50
2018-08-13T08:56:10.009Z,25.50
2018-08-13T08:57:26.731Z,25.50
2018-08-13T08:58:43.704Z,25.50
2018-08-13T09:00:00.194Z,25.50
2018-08-13T09:01:17.600Z,25.50
2018-08-13T09:02:35.129Z,25.50
2018-08-13T09:03:52.036Z,25.50
2018-08-13T09:05:09.896Z,25.50
2018-08-13T09:06:26.578Z,25.50
2018-08-13T09:07:44.528Z,25.50
2018-08-13T09:09:02.392Z,25.50
2018-08-13T09:10:20.031Z,25.50
2018-08-13T09:11:37.773Z,25.50
2018-08-13T09:12:54.451Z,25.50
2018-08-13T09:14:11.476Z,25.50
2018-08-13T09:15:28.912Z,25.50
2018-08-13T09:16:48.149Z,25.50
2018-08-13T09:18:16.507Z,25.50
2018-08-13T09:19:44.954Z,25.50
2018-08-13T09:21:29.720Z,25.50
2018-08-13T09:22:58.176Z,25.50
2018-08-13T09:24:26.551Z,25.50
2018-08-13T09:25:55.407Z,25.50
2018-08-13T09:27:24.071Z,25.50
2018-08-13T09:28:52.099Z,25.50
2018-08-13T09:30:20.720Z,25.50
2018-08-13T09:32:37.453Z,25.40
2018-08-13T09:34:08.004Z,25.50
2018-08-13T09:35:28.408Z,25.40
2018-08-13T09:36:45.743Z,25.40
2018-08-13T09:38:03.242Z,25.40
2018-08-13T09:39:20.308Z,25.40
2018-08-13T09:40:37.000Z,25.50
2018-08-13T09:41:53.980Z,25.40
2018-08-13T09:43:10.899Z,25.40
2018-08-13T09:44:27.487Z,25.50
2018-08-13T09:45:44.526Z,25.40
2018-08-13T09:47:01.220Z,25.40
2018-08-13T09:48:18.484Z,25.40
2018-08-13T09:49:35.041Z,25.40
2018-08-13T09:50:52.154Z,25.40
2018-08-13T09:52:08.905Z,25.40
2018-08-13T09:53:25.420Z,25.40
2018-08-13T09:54:42.453Z,25.40
2018-08-13T09:55:59.308Z,25.40
2018-08-13T09:57:16.042Z,25.40
2018-08-13T09:58:32.941Z,25.40
2018-08-13T09:59:49.736Z,25.40
2018-08-13T10:01:12.330Z,25.40
2018-08-13T10:02:29.653Z,25.40
2018-08-13T10:03:46.364Z,25.40
2018-08-13T10:05:03.124Z,25.40
2018-08-13T10:06:20.112Z,25.40
2018-08-13T10:07:36.898Z,25.40
2018-08-13T10:08:53.745Z,25.40
2018-08-13T10:10:11.305Z,25.40
2018-08-13T10:11:28.325Z,25.40
2018-08-13T10:12:46.253Z,25.40
2018-08-13T10:14:03.773Z,25.40
2018-08-13T10:15:20.638Z,25.40
2018-08-13T10:16:38.167Z,25.40
2018-08-13T10:17:55.458Z,25.40
2018-08-13T10:19:11.954Z,25.40
2018-08-13T10:20:29.016Z,25.40
2018-08-13T10:21:45.988Z,25.40
2018-08-13T10:23:03.131Z,25.40
2018-08-13T10:24:19.906Z,25.40
2018-08-13T10:25:36.714Z,25.40
2018-08-13T10:26:53.325Z,25.40
2018-08-13T10:28:10.241Z,25.40
2018-08-13T10:29:27.471Z,25.30
2018-08-13T10:30:44.252Z,25.40
2018-08-13T10:32:01.300Z,25.30
2018-08-13T10:33:18.032Z,25.30
2018-08-13T10:34:34.636Z,25.30
2018-08-13T10:35:51.161Z,25.30
2018-08-13T10:37:08.396Z,25.30
2018-08-13T10:38:25.956Z,25.40
2018-08-13T10:39:42.566Z,25.30
2018-08-13T10:40:59.377Z,25.40
2018-08-13T10:42:16.016Z,25.40
2018-08-13T10:43:33.203Z,25.40
2018-08-13T10:44:49.739Z,25.40
2018-08-13T10:46:06.744Z,25.30
2018-08-13T10:47:23.271Z,25.30
2018-08-13T10:48:40.383Z,25.30
2018-08-13T10:49:57.280Z,25.30
2018-08-13T10:51:14.198Z,25.40
2018-08-13T10:52:31.057Z,25.40
2018-08-13T10:53:48.694Z,25.40
2018-08-13T10:55:05.513Z,25.40
2018-08-13T10:56:23.018Z,25.40
2018-08-13T10:57:40.193Z,25.40
2018-08-13T10:58:57.639Z,25.40
2018-08-13T11:00:16.760Z,25.40
2018-08-13T11:01:33.881Z,25.50
2018-08-13T11:02:50.709Z,25.40
2018-08-13T11:04:07.993Z,25.50
2018-08-13T11:05:24.745Z,25.40
2018-08-13T11:06:41.645Z,25.50
2018-08-13T11:07:58.370Z,25.50
2018-08-13T11:09:15.124Z,25.50
2018-08-13T11:10:32.303Z,25.50
2018-08-13T11:11:48.895Z,25.50
2018-08-13T11:13:05.772Z,25.50
2018-08-13T11:14:23.296Z,25.50
2018-08-13T11:15:40.223Z,25.50
2018-08-13T11:16:57.222Z,25.50
2018-08-13T11:18:13.873Z,25.50
2018-08-13T11:19:30.812Z,25.50
2018-08-13T11:20:47.576Z,25.50
2018-08-13T11:22:04.442Z,25.50
2018-08-13T11:23:21.404Z,25.50
2018-08-13T11:24:38.268Z,25.50
2018-08-13T11:25:55.175Z,25.50
2018-08-13T11:27:12.638Z,25.50
2018-08-13T11:28:29.757Z,25.50
2018-08-13T11:29:46.672Z,25.50
2018-08-13T11:31:04.063Z,25.50
2018-08-13T11:32:20.981Z,25.50
2018-08-13T11:33:37.758Z,25.50
2018-08-13T11:34:54.631Z,25.50
2018-08-13T11:36:11.502Z,25.50
2018-08-13T11:37:28.681Z,25.50
2018-08-13T11:38:46.218Z,25.50
2018-08-13T11:40:12.464Z,25.50
2018-08-13T11:41:29.635Z,25.50
2018-08-13T11:42:46.313Z,25.50
2018-08-13T11:44:03.337Z,25.50
2018-08-13T11:45:21.531Z,25.50
2018-08-13T11:46:38.685Z,25.50
2018-08-13T11:47:55.497Z,25.40
2018-08-13T11:49:12.404Z,25.40
2018-08-13T11:50:29.424Z,25.40
2018-08-13T11:51:46.978Z,25.40
2018-08-13T11:53:03.604Z,25.40
2018-08-13T11:54:20.434Z,25.40
2018-08-13T11:55:37.524Z,25.40
2018-08-13T11:56:54.183Z,25.40
2018-08-13T11:58:10.864Z,25.40
2018-08-13T11:59:27.686Z,25.40
2018-08-13T12:00:44.372Z,25.40
2018-08-13T12:02:01.127Z,25.40
2018-08-13T12:03:17.912Z,25.40
2018-08-13T12:04:34.441Z,25.40
2018-08-13T12:05:51.277Z,25.40
2018-08-13T12:07:08.212Z,25.40
2018-08-13T12:08:25.033Z,25.50
2018-08-13T12:09:41.736Z,25.50
2018-08-13T12:10:58.601Z,25.60
2018-08-13T12:12:15.378Z,25.60
2018-08-13T12:13:32.313Z,25.70
2018-08-13T12:14:49.164Z,25.60
2018-08-13T12:16:05.876Z,25.70
2018-08-13T12:17:22.387Z,25.60
2018-08-13T12:18:39.505Z,25.50
2018-08-13T12:19:57.231Z,25.50
2018-08-13T12:21:14.367Z,25.50
2018-08-13T12:22:36.673Z,25.50
2018-08-13T12:23:53.339Z,25.50
2018-08-13T12:25:10.480Z,25.50
2018-08-13T12:26:28.238Z,25.50
2018-08-13T12:27:45.749Z,25.40
2018-08-13T12:29:02.485Z,25.50
2018-08-13T12:30:19.514Z,25.40
2018-08-13T12:31:37.032Z,25.40
2018-08-13T12:32:53.785Z,25.40
2018-08-13T12:34:11.429Z,25.40
2018-08-13T12:35:28.157Z,25.40
2018-08-13T12:36:45.381Z,25.40
2018-08-13T12:38:02.266Z,25.40
2018-08-13T12:39:18.953Z,25.40
2018-08-13T12:40:36.542Z,25.40
2018-08-13T12:41:53.497Z,25.40
2018-08-13T12:43:10.846Z,25.40
2018-08-13T12:44:27.728Z,25.40
2018-08-13T12:45:44.762Z,25.40
2018-08-13T12:47:02.688Z,25.40
2018-08-13T12:48:20.018Z,25.40
2018-08-13T12:49:36.990Z,25.40
2018-08-13T12:50:54.000Z,25.40
2018-08-13T12:52:11.277Z,25.40
2018-08-13T12:53:28.506Z,25.40
2018-08-13T12:54:45.850Z,25.40
2018-08-13T12:56:02.942Z,25.40
2018-08-13T12:57:20.002Z,25.40
2018-08-13T12:58:36.585Z,25.40
2018-08-13T12:59:53.501Z,25.40
2018-08-13T13:01:11.321Z,25.40
2018-08-13T13:02:28.230Z,25.40
2018-08-13T13:03:45.135Z,25.50
2018-08-13T13:05:02.343Z,25.50
2018-08-13T13:06:19.972Z,25.50
2018-08-13T13:07:36.970Z,25.60
2018-08-13T13:08:54.830Z,25.60
2018-08-13T13:10:13.748Z,25.60
2018-08-13T13:11:30.928Z,25.50
2018-08-13T13:12:47.693Z,25.50
2018-08-13T13:14:04.453Z,25.50
2018-08-13T13:15:21.623Z,25.50
2018-08-13T13:16:38.785Z,25.50
2018-08-13T13:17:55.777Z,25.60
2018-08-13T13:19:13.528Z,25.70
2018-08-13T13:20:30.206Z,25.70
2018-08-13T13:21:47.217Z,25.60
2018-08-13T13:23:04.870Z,25.60
2018-08-13T13:24:21.827Z,25.60
2018-08-13T13:25:38.682Z,25.50
2018-08-13T13:26:55.942Z,25.50
2018-08-13T13:28:12.697Z,25.50
2018-08-13T13:29:29.537Z,25.50
2018-08-13T13:30:46.432Z,25.50
2018-08-13T13:32:03.636Z,25.50
2018-08-13T13:33:21.200Z,25.50
2018-08-13T13:34:38.259Z,25.50
2018-08-13T13:35:55.711Z,25.50
2018-08-13T13:37:12.696Z,25.50
2018-08-13T13:38:30.144Z,25.50
2018-08-13T13:39:47.606Z,25.50
2018-08-13T13:41:05.279Z,25.50
2018-08-13T13:42:22.384Z,25.40
2018-08-13T13:43:39.064Z,25.50
2018-08-13T13:44:55.924Z,25.50
2018-08-13T13:46:12.970Z,25.50
2018-08-13T13:47:29.857Z,25.50
2018-08-13T13:48:47.380Z,25.50
2018-08-13T13:50:04.133Z,25.50
2018-08-13T13:51:20.856Z,25.50
2018-08-13T13:52:37.476Z,25.50
2018-08-13T13:53:54.540Z,25.60
2018-08-13T13:55:11.392Z,25.70
2018-08-13T13:56:28.089Z,25.70
2018-08-13T13:57:45.175Z,25.60
2018-08-13T13:59:01.897Z,25.60
2018-08-13T14:00:20.439Z,25.70
2018-08-13T14:01:37.713Z,25.60
2018-08-13T14:02:55.163Z,25.60
2018-08-13T14:04:11.819Z,25.60
2018-08-13T14:05:28.436Z,25.60
2018-08-13T14:06:45.496Z,25.60
2018-08-13T14:08:02.461Z,25.60
2018-08-13T14:09:19.317Z,25.70
2018-08-13T14:10:36.457Z,25.80
2018-08-13T14:11:53.065Z,25.90
2018-08-13T14:13:09.660Z,26.00
2018-08-13T14:14:26.822Z,26.00
2018-08-13T14:15:44.181Z,26.00
2018-08-13T14:17:01.739Z,26.00
2018-08-13T14:18:18.801Z,26.00
2018-08-13T14:19:35.437Z,26.00
2018-08-13T14:20:52.428Z,26.00
2018-08-13T14:22:10.028Z,25.90
2018-08-13T14:23:26.777Z,25.80
2018-08-13T14:24:43.570Z,25.80
2018-08-13T14:26:00.481Z,25.80
2018-08-13T14:27:17.138Z,25.90
2018-08-13T14:28:34.438Z,25.90
2018-08-13T14:29:51.594Z,25.80
2018-08-13T14:31:08.328Z,25.70
2018-08-13T14:32:25.272Z,25.80
2018-08-13T14:33:42.696Z,25.90
2018-08-13T14:34:59.684Z,26.00
2018-08-13T14:36:16.565Z,26.00
2018-08-13T14:37:33.264Z,25.90
2018-08-13T14:38:49.943Z,25.90
2018-08-13T14:40:08.531Z,25.90
2018-08-13T14:41:25.696Z,26.00
2018-08-13T14:42:43.029Z,26.00
2018-08-13T14:44:00.497Z,26.00
2018-08-13T14:45:18.752Z,26.00
2018-08-13T14:46:36.447Z,26.00
2018-08-13T14:47:53.552Z,26.10
2018-08-13T14:49:10.517Z,26.10
2018-08-13T14:50:27.597Z,26.10
2018-08-13T14:51:44.945Z,26.10
2018-08-13T14:53:02.058Z,26.10
2018-08-13T14:54:19.440Z,26.10
2018-08-13T14:55:36.454Z,26.10
2018-08-13T14:56:53.997Z,26.10
2018-08-13T14:58:12.752Z,26.20
2018-08-13T14:59:29.577Z,26.20
2018-08-13T15:00:46.588Z,26.10
2018-08-13T15:02:03.945Z,26.20
2018-08-13T15:03:20.779Z,26.30
2018-08-13T15:04:38.104Z,26.40
2018-08-13T15:05:55.343Z,26.30
2018-08-13T15:07:12.473Z,26.40
2018-08-13T15:08:29.450Z,26.30
2018-08-13T15:09:46.868Z,26.50
2018-08-13T15:11:03.722Z,26.30
2018-08-13T15:12:20.596Z,26.10
2018-08-13T15:13:37.497Z,26.00
2018-08-13T15:14:54.438Z,25.90
2018-08-13T15:16:11.290Z,25.80
2018-08-13T15:17:28.116Z,25.80
2018-08-13T15:18:44.765Z,25.80
2018-08-13T15:20:01.478Z,25.90
2018-08-13T15:21:18.094Z,26.10
2018-08-13T15:22:34.700Z,26.10
2018-08-13T15:23:51.418Z,26.30
2018-08-13T15:25:08.008Z,26.60
2018-08-13T15:26:25.401Z,26.70
2018-08-13T15:27:42.293Z,26.50
2018-08-13T15:28:59.120Z,26.40
2018-08-13T15:30:17.772Z,26.30
2018-08-13T15:31:34.610Z,26.20
2018-08-13T15:32:52.724Z,26.30
2018-08-13T15:34:09.746Z,26.20
2018-08-13T15:35:26.483Z,26.10
2018-08-13T15:36:43.622Z,26.10
2018-08-13T15:38:01.008Z,26.00
2018-08-13T15:39:17.888Z,25.90
2018-08-13T15:40:34.617Z,25.90
2018-08-13T15:41:51.619Z,25.80
2018-08-13T15:43:08.419Z,25.80
2018-08-13T15:44:26.033Z,25.80
2018-08-13T15:45:42.732Z,25.80
2018-08-13T15:46:59.628Z,25.80
2018-08-13T15:48:16.381Z,25.80
2018-08-13T15:49:33.061Z,25.80
2018-08-13T15:50:50.052Z,25.80
2018-08-13T15:52:06.850Z,25.80
2018-08-13T15:53:23.795Z,25.80
2018-08-13T15:54:40.936Z,25.80
2018-08-13T15:55:57.829Z,25.80
2018-08-13T15:57:14.793Z,25.80
2018-08-13T15:58:31.650Z,25.70
2018-08-13T15:59:48.684Z,25.70
2018-08-13T16:01:05.237Z,25.70
2018-08-13T16:02:22.114Z,25.70
2018-08-13T16:03:38.868Z,25.70
2018-08-13T16:04:56.160Z,25.70
2018-08-13T16:06:13.371Z,25.70
2018-08-13T16:07:31.145Z,25.60
2018-08-13T16:08:48.237Z,25.70
2018-08-13T16:10:07.297Z,25.70
2018-08-13T16:11:25.143Z,25.70
2018-08-13T16:12:42.995Z,25.70
2018-08-13T16:14:00.124Z,25.70
2018-08-13T16:15:16.993Z,25.70
2018-08-13T16:16:34.247Z,25.70
2018-08-13T16:17:51.692Z,25.70
2018-08-13T16:19:08.557Z,25.70
2018-08-13T16:20:25.412Z,25.70
2018-08-13T16:21:42.256Z,25.70
2018-08-13T16:22:59.129Z,25.70
2018-08-13T16:24:15.667Z,25.60
2018-08-13T16:25:32.676Z,25.70
2018-08-13T16:26:49.759Z,25.70
2018-08-13T16:28:07.277Z,25.60
2018-08-13T16:29:24.015Z,25.70
2018-08-13T16:30:41.491Z,25.70
2018-08-13T16:31:58.742Z,25.60
2018-08-13T16:33:16.792Z,25.70
2018-08-13T16:34:33.901Z,25.60
2018-08-13T16:35:50.676Z,25.60